sensor_id;sensor_type;location;lat;lon;timestamp;temperature;humidity
2907;DHT22;1463;51.070;16.998;2023-11-19T00:00:06;4.50;99.90
2907;DHT22;1463;51.070;16.998;2023-11-19T00:02:36;4.50;99.90
2907;DHT22;1463;51.070;16.998;2023-11-19T00:05:04;4.50;99.90
2907;DHT22;1463;51.070;16.998;2023-11-19T00:07:32;4.60;99.90
2907;DHT22;1463;51.070;16.998;2023-11-19T00:09:59;4.50;99.90
2907;DHT22;1463;51.070;16.998;2023-11-19T00:12:35;4.50;99.90
2907;DHT22;1463;51.070;16.998;2023-11-19T00:15:02;4.70;99.90
2907;DHT22;1463;51.070;16.998;2023-11-19T00:17:29;4.60;99.90
2907;DHT22;1463;51.070;16.998;2023-11-19T00:19:55;4.60;99.90
2907;DHT22;1463;51.070;16.998;2023-11-19T00:22:25;4.50;99.90
2907;DHT22;1463;51.070;16.998;2023-11-19T00:24:53;4.60;99.90
2907;DHT22;1463;51.070;16.998;2023-11-19T00:27:20;4.50;99.90
2907;DHT22;1463;51.070;16.998;2023-11-19T00:29:46;4.40;99.90
2907;DHT22;1463;51.070;16.998;2023-11-19T00:32:13;4.40;99.90
2907;DHT22;1463;51.070;16.998;2023-11-19T00:34:41;4.30;99.90
2907;DHT22;1463;51.070;16.998;2023-11-19T00:37:09;4.30;99.90
2907;DHT22;1463;51.070;16.998;2023-11-19T00:39:36;4.30;99.90
2907;DHT22;1463;51.070;16.998;2023-11-19T00:42:04;4.40;99.90
2907;DHT22;1463;51.070;16.998;2023-11-19T00:44:31;4.50;99.90
2907;DHT22;1463;51.070;16.998;2023-11-19T00:46:58;4.50;99.90
2907;DHT22;1463;51.070;16.998;2023-11-19T00:49:26;4.50;99.90
2907;DHT22;1463;51.070;16.998;2023-11-19T00:51:52;4.50;99.90
2907;DHT22;1463;51.070;16.998;2023-11-19T00:54:19;4.40;99.90
2907;DHT22;1463;51.070;16.998;2023-11-19T00:56:46;4.60;99.90
2907;DHT22;1463;51.070;16.998;2023-11-19T00:59:16;4.60;99.90
2907;DHT22;1463;51.070;16.998;2023-11-19T01:01:43;4.40;99.90
2907;DHT22;1463;51.070;16.998;2023-11-19T01:04:10;4.30;99.90
2907;DHT22;1463;51.070;16.998;2023-11-19T01:06:38;4.40;99.90
2907;DHT22;1463;51.070;16.998;2023-11-19T01:09:08;4.50;99.90
2907;DHT22;1463;51.070;16.998;2023-11-19T01:11:35;4.60;99.90
2907;DHT22;1463;51.070;16.998;2023-11-19T01:14:02;4.40;99.90
2907;DHT22;1463;51.070;16.998;2023-11-19T01:16:30;4.30;99.90
2907;DHT22;1463;51.070;16.998;2023-11-19T01:18:59;4.30;99.90
2907;DHT22;1463;51.070;16.998;2023-11-19T01:21:29;4.30;99.90
2907;DHT22;1463;51.070;16.998;2023-11-19T01:23:57;4.40;99.90
2907;DHT22;1463;51.070;16.998;2023-11-19T01:26:24;4.50;99.90
2907;DHT22;1463;51.070;16.998;2023-11-19T01:28:50;4.30;99.90
2907;DHT22;1463;51.070;16.998;2023-11-19T01:31:18;4.40;99.90
2907;DHT22;1463;51.070;16.998;2023-11-19T01:33:46;4.50;99.90
2907;DHT22;1463;51.070;16.998;2023-11-19T01:36:13;4.40;99.90
2907;DHT22;1463;51.070;16.998;2023-11-19T01:38:40;4.30;99.90
2907;DHT22;1463;51.070;16.998;2023-11-19T01:41:07;4.40;99.90
2907;DHT22;1463;51.070;16.998;2023-11-19T01:43:35;4.40;99.90
2907;DHT22;1463;51.070;16.998;2023-11-19T01:46:02;4.50;99.90
2907;DHT22;1463;51.070;16.998;2023-11-19T01:48:30;4.40;99.90
2907;DHT22;1463;51.070;16.998;2023-11-19T01:51:00;4.20;99.90
2907;DHT22;1463;51.070;16.998;2023-11-19T01:53:28;4.20;99.90
2907;DHT22;1463;51.070;16.998;2023-11-19T01:55:56;4.10;99.90
2907;DHT22;1463;51.070;16.998;2023-11-19T01:58:23;3.90;99.90
2907;DHT22;1463;51.070;16.998;2023-11-19T02:00:51;3.90;99.90
2907;DHT22;1463;51.070;16.998;2023-11-19T02:03:18;4.10;99.90
2907;DHT22;1463;51.070;16.998;2023-11-19T02:05:50;3.90;99.90
2907;DHT22;1463;51.070;16.998;2023-11-19T02:08:19;4.00;99.90
2907;DHT22;1463;51.070;16.998;2023-11-19T02:10:46;3.90;99.90
2907;DHT22;1463;51.070;16.998;2023-11-19T02:13:13;4.10;99.90
2907;DHT22;1463;51.070;16.998;2023-11-19T02:15:41;3.60;99.90
2907;DHT22;1463;51.070;16.998;2023-11-19T02:18:19;3.80;99.90
2907;DHT22;1463;51.070;16.998;2023-11-19T02:20:47;3.90;99.90
2907;DHT22;1463;51.070;16.998;2023-11-19T02:23:14;4.00;99.90
2907;DHT22;1463;51.070;16.998;2023-11-19T02:25:43;4.10;99.90
2907;DHT22;1463;51.070;16.998;2023-11-19T02:28:17;4.00;99.90
2907;DHT22;1463;51.070;16.998;2023-11-19T02:30:44;3.90;99.90
2907;DHT22;1463;51.070;16.998;2023-11-19T02:33:10;3.80;99.90
2907;DHT22;1463;51.070;16.998;2023-11-19T02:35:38;3.90;99.90
2907;DHT22;1463;51.070;16.998;2023-11-19T02:38:06;3.90;99.90
2907;DHT22;1463;51.070;16.998;2023-11-19T02:40:34;3.80;99.90
2907;DHT22;1463;51.070;16.998;2023-11-19T02:43:01;3.80;99.90
2907;DHT22;1463;51.070;16.998;2023-11-19T02:45:31;4.00;99.90
2907;DHT22;1463;51.070;16.998;2023-11-19T02:47:58;3.90;99.90
2907;DHT22;1463;51.070;16.998;2023-11-19T02:50:27;3.90;99.90
2907;DHT22;1463;51.070;16.998;2023-11-19T02:52:56;3.80;99.90
2907;DHT22;1463;51.070;16.998;2023-11-19T02:55:23;3.80;99.90
2907;DHT22;1463;51.070;16.998;2023-11-19T02:57:50;3.90;99.90
2907;DHT22;1463;51.070;16.998;2023-11-19T03:00:19;4.00;99.90
2907;DHT22;1463;51.070;16.998;2023-11-19T03:02:51;3.80;99.90
2907;DHT22;1463;51.070;16.998;2023-11-19T03:05:25;3.70;99.90
2907;DHT22;1463;51.070;16.998;2023-11-19T03:07:52;3.70;99.90
2907;DHT22;1463;51.070;16.998;2023-11-19T03:10:19;3.80;99.90
2907;DHT22;1463;51.070;16.998;2023-11-19T03:12:45;3.90;99.90
2907;DHT22;1463;51.070;16.998;2023-11-19T03:15:12;3.80;99.90
2907;DHT22;1463;51.070;16.998;2023-11-19T03:17:40;3.70;99.90
2907;DHT22;1463;51.070;16.998;2023-11-19T03:20:10;3.80;99.90
2907;DHT22;1463;51.070;16.998;2023-11-19T03:22:40;3.60;99.90
2907;DHT22;1463;51.070;16.998;2023-11-19T03:25:08;3.60;99.90
2907;DHT22;1463;51.070;16.998;2023-11-19T03:27:35;3.60;99.90
2907;DHT22;1463;51.070;16.998;2023-11-19T03:30:02;3.60;99.90
2907;DHT22;1463;51.070;16.998;2023-11-19T03:32:30;3.70;99.90
2907;DHT22;1463;51.070;16.998;2023-11-19T03:34:57;3.70;99.90
2907;DHT22;1463;51.070;16.998;2023-11-19T03:37:26;3.60;99.90
2907;DHT22;1463;51.070;16.998;2023-11-19T03:39:53;3.70;99.90
2907;DHT22;1463;51.070;16.998;2023-11-19T03:42:22;3.50;99.90
2907;DHT22;1463;51.070;16.998;2023-11-19T03:44:49;3.70;99.90
2907;DHT22;1463;51.070;16.998;2023-11-19T03:47:16;3.60;99.90
2907;DHT22;1463;51.070;16.998;2023-11-19T03:49:42;3.50;99.90
2907;DHT22;1463;51.070;16.998;2023-11-19T03:52:14;3.60;99.90
2907;DHT22;1463;51.070;16.998;2023-11-19T03:54:42;3.70;99.90
2907;DHT22;1463;51.070;16.998;2023-11-19T03:57:09;3.60;99.90
2907;DHT22;1463;51.070;16.998;2023-11-19T03:59:37;3.60;99.90
2907;DHT22;1463;51.070;16.998;2023-11-19T04:02:04;3.50;99.90
2907;DHT22;1463;51.070;16.998;2023-11-19T04:04:31;3.50;99.90
2907;DHT22;1463;51.070;16.998;2023-11-19T04:06:58;3.60;99.90
2907;DHT22;1463;51.070;16.998;2023-11-19T04:09:26;3.50;99.90
2907;DHT22;1463;51.070;16.998;2023-11-19T04:11:54;3.60;99.90
2907;DHT22;1463;51.070;16.998;2023-11-19T04:14:21;3.60;99.90
2907;DHT22;1463;51.070;16.998;2023-11-19T04:16:48;3.60;99.90
2907;DHT22;1463;51.070;16.998;2023-11-19T04:19:14;3.70;99.90
2907;DHT22;1463;51.070;16.998;2023-11-19T04:21:41;3.50;99.90
2907;DHT22;1463;51.070;16.998;2023-11-19T04:24:09;3.50;99.90
2907;DHT22;1463;51.070;16.998;2023-11-19T04:26:40;3.60;99.90
2907;DHT22;1463;51.070;16.998;2023-11-19T04:29:08;3.50;99.90
2907;DHT22;1463;51.070;16.998;2023-11-19T04:31:36;3.30;99.90
2907;DHT22;1463;51.070;16.998;2023-11-19T04:34:03;3.40;99.90
2907;DHT22;1463;51.070;16.998;2023-11-19T04:36:30;3.30;99.90
2907;DHT22;1463;51.070;16.998;2023-11-19T04:38:57;3.40;99.90
2907;DHT22;1463;51.070;16.998;2023-11-19T04:41:25;3.40;99.90
2907;DHT22;1463;51.070;16.998;2023-11-19T04:43:52;3.30;99.90
2907;DHT22;1463;51.070;16.998;2023-11-19T04:46:21;3.40;99.90
2907;DHT22;1463;51.070;16.998;2023-11-19T04:48:49;3.40;99.90
2907;DHT22;1463;51.070;16.998;2023-11-19T04:51:15;3.30;99.90
2907;DHT22;1463;51.070;16.998;2023-11-19T04:53:42;3.50;99.90
2907;DHT22;1463;51.070;16.998;2023-11-19T04:56:11;3.40;99.90
2907;DHT22;1463;51.070;16.998;2023-11-19T04:58:39;3.30;99.90
2907;DHT22;1463;51.070;16.998;2023-11-19T05:01:06;3.40;99.90
2907;DHT22;1463;51.070;16.998;2023-11-19T05:03:34;3.40;99.90
2907;DHT22;1463;51.070;16.998;2023-11-19T05:06:01;3.40;99.90
2907;DHT22;1463;51.070;16.998;2023-11-19T05:08:28;3.30;99.90
2907;DHT22;1463;51.070;16.998;2023-11-19T05:10:55;3.30;99.90
2907;DHT22;1463;51.070;16.998;2023-11-19T05:13:23;3.30;99.90
2907;DHT22;1463;51.070;16.998;2023-11-19T05:15:50;3.50;99.90
2907;DHT22;1463;51.070;16.998;2023-11-19T05:18:17;3.50;99.90
2907;DHT22;1463;51.070;16.998;2023-11-19T05:20:45;3.70;99.90
2907;DHT22;1463;51.070;16.998;2023-11-19T05:23:12;3.60;99.90
2907;DHT22;1463;51.070;16.998;2023-11-19T05:25:39;3.60;99.90
2907;DHT22;1463;51.070;16.998;2023-11-19T05:28:06;3.70;99.90
2907;DHT22;1463;51.070;16.998;2023-11-19T05:30:33;3.80;99.90
2907;DHT22;1463;51.070;16.998;2023-11-19T05:33:00;3.80;99.90
2907;DHT22;1463;51.070;16.998;2023-11-19T05:35:27;3.80;99.90
2907;DHT22;1463;51.070;16.998;2023-11-19T05:37:55;3.70;99.90
2907;DHT22;1463;51.070;16.998;2023-11-19T05:40:22;3.80;99.90
2907;DHT22;1463;51.070;16.998;2023-11-19T05:42:49;3.80;99.90
2907;DHT22;1463;51.070;16.998;2023-11-19T05:45:16;3.80;99.90
2907;DHT22;1463;51.070;16.998;2023-11-19T05:47:42;3.90;99.90
2907;DHT22;1463;51.070;16.998;2023-11-19T05:50:10;3.80;99.90
2907;DHT22;1463;51.070;16.998;2023-11-19T05:52:37;3.90;99.90
2907;DHT22;1463;51.070;16.998;2023-11-19T05:55:05;3.80;99.90
2907;DHT22;1463;51.070;16.998;2023-11-19T05:57:35;3.90;99.90
2907;DHT22;1463;51.070;16.998;2023-11-19T06:00:05;3.80;99.90
2907;DHT22;1463;51.070;16.998;2023-11-19T06:02:34;3.90;99.90
2907;DHT22;1463;51.070;16.998;2023-11-19T06:05:03;3.90;99.90
2907;DHT22;1463;51.070;16.998;2023-11-19T06:07:31;3.90;99.90
2907;DHT22;1463;51.070;16.998;2023-11-19T06:09:58;3.90;99.90
2907;DHT22;1463;51.070;16.998;2023-11-19T06:12:26;4.00;99.90
2907;DHT22;1463;51.070;16.998;2023-11-19T06:14:57;3.90;99.90
2907;DHT22;1463;51.070;16.998;2023-11-19T06:17:23;3.90;99.90
2907;DHT22;1463;51.070;16.998;2023-11-19T06:19:50;3.90;99.90
2907;DHT22;1463;51.070;16.998;2023-11-19T06:22:17;3.80;99.90
2907;DHT22;1463;51.070;16.998;2023-11-19T06:24:47;3.90;99.90
2907;DHT22;1463;51.070;16.998;2023-11-19T06:27:13;4.00;99.90
2907;DHT22;1463;51.070;16.998;2023-11-19T06:29:42;3.90;99.90
2907;DHT22;1463;51.070;16.998;2023-11-19T06:32:08;3.90;99.90
2907;DHT22;1463;51.070;16.998;2023-11-19T06:34:35;3.90;99.90
2907;DHT22;1463;51.070;16.998;2023-11-19T06:37:05;4.00;99.90
2907;DHT22;1463;51.070;16.998;2023-11-19T06:39:34;4.00;99.90
2907;DHT22;1463;51.070;16.998;2023-11-19T06:42:03;4.00;99.90
2907;DHT22;1463;51.070;16.998;2023-11-19T06:44:30;4.00;99.90
2907;DHT22;1463;51.070;16.998;2023-11-19T06:46:58;4.10;99.90
2907;DHT22;1463;51.070;16.998;2023-11-19T06:49:25;4.00;99.90
2907;DHT22;1463;51.070;16.998;2023-11-19T06:51:52;4.00;99.90
2907;DHT22;1463;51.070;16.998;2023-11-19T06:54:19;4.00;99.90
2907;DHT22;1463;51.070;16.998;2023-11-19T06:56:46;4.00;99.90
2907;DHT22;1463;51.070;16.998;2023-11-19T06:59:13;4.10;99.90
2907;DHT22;1463;51.070;16.998;2023-11-19T07:01:40;4.10;99.90
2907;DHT22;1463;51.070;16.998;2023-11-19T07:04:10;4.10;99.90
2907;DHT22;1463;51.070;16.998;2023-11-19T07:06:38;4.10;99.90
2907;DHT22;1463;51.070;16.998;2023-11-19T07:09:06;4.10;99.90
2907;DHT22;1463;51.070;16.998;2023-11-19T07:11:36;4.10;99.90
2907;DHT22;1463;51.070;16.998;2023-11-19T07:14:04;4.20;99.90
2907;DHT22;1463;51.070;16.998;2023-11-19T07:16:32;4.20;99.90
2907;DHT22;1463;51.070;16.998;2023-11-19T07:18:59;4.10;99.90
2907;DHT22;1463;51.070;16.998;2023-11-19T07:21:28;4.10;99.90
2907;DHT22;1463;51.070;16.998;2023-11-19T07:23:54;4.00;99.90
2907;DHT22;1463;51.070;16.998;2023-11-19T07:26:21;4.10;99.90
2907;DHT22;1463;51.070;16.998;2023-11-19T07:28:48;4.10;99.90
2907;DHT22;1463;51.070;16.998;2023-11-19T07:31:15;4.10;99.90
2907;DHT22;1463;51.070;16.998;2023-11-19T07:33:44;4.10;99.90
2907;DHT22;1463;51.070;16.998;2023-11-19T07:36:14;4.10;99.90
2907;DHT22;1463;51.070;16.998;2023-11-19T07:38:42;4.10;99.90
2907;DHT22;1463;51.070;16.998;2023-11-19T07:41:09;4.10;99.90
2907;DHT22;1463;51.070;16.998;2023-11-19T07:43:39;4.10;99.90
2907;DHT22;1463;51.070;16.998;2023-11-19T07:46:10;4.00;99.90
2907;DHT22;1463;51.070;16.998;2023-11-19T07:48:38;4.10;99.90
2907;DHT22;1463;51.070;16.998;2023-11-19T07:51:05;4.10;99.90
2907;DHT22;1463;51.070;16.998;2023-11-19T07:53:32;4.10;99.90
2907;DHT22;1463;51.070;16.998;2023-11-19T07:56:01;4.10;99.90
2907;DHT22;1463;51.070;16.998;2023-11-19T07:58:27;4.20;99.90
2907;DHT22;1463;51.070;16.998;2023-11-19T08:00:54;4.10;99.90
2907;DHT22;1463;51.070;16.998;2023-11-19T08:03:21;4.20;99.90
2907;DHT22;1463;51.070;16.998;2023-11-19T08:05:48;4.20;99.90
2907;DHT22;1463;51.070;16.998;2023-11-19T08:08:16;4.20;99.90
2907;DHT22;1463;51.070;16.998;2023-11-19T08:10:43;4.10;99.90
2907;DHT22;1463;51.070;16.998;2023-11-19T08:13:12;4.10;99.90
2907;DHT22;1463;51.070;16.998;2023-11-19T08:15:38;4.10;99.90
2907;DHT22;1463;51.070;16.998;2023-11-19T08:18:05;4.10;99.90
2907;DHT22;1463;51.070;16.998;2023-11-19T08:20:32;4.10;99.90
2907;DHT22;1463;51.070;16.998;2023-11-19T08:22:59;4.10;99.90
2907;DHT22;1463;51.070;16.998;2023-11-19T08:25:26;4.10;99.90
2907;DHT22;1463;51.070;16.998;2023-11-19T08:27:53;4.10;99.90
2907;DHT22;1463;51.070;16.998;2023-11-19T08:30:21;4.20;99.90
2907;DHT22;1463;51.070;16.998;2023-11-19T08:32:48;4.20;99.90
2907;DHT22;1463;51.070;16.998;2023-11-19T08:35:15;4.20;99.90
2907;DHT22;1463;51.070;16.998;2023-11-19T08:37:42;4.30;99.90
2907;DHT22;1463;51.070;16.998;2023-11-19T08:40:11;4.20;99.90
2907;DHT22;1463;51.070;16.998;2023-11-19T08:42:40;4.10;99.90
2907;DHT22;1463;51.070;16.998;2023-11-19T08:45:10;4.10;99.90
2907;DHT22;1463;51.070;16.998;2023-11-19T08:47:38;4.00;99.90
2907;DHT22;1463;51.070;16.998;2023-11-19T08:50:06;3.90;99.90
2907;DHT22;1463;51.070;16.998;2023-11-19T08:52:33;4.00;99.90
2907;DHT22;1463;51.070;16.998;2023-11-19T08:55:01;3.90;99.90
2907;DHT22;1463;51.070;16.998;2023-11-19T08:57:28;3.80;99.90
2907;DHT22;1463;51.070;16.998;2023-11-19T08:59:54;3.90;99.90
2907;DHT22;1463;51.070;16.998;2023-11-19T09:02:21;3.90;99.90
2907;DHT22;1463;51.070;16.998;2023-11-19T09:04:49;3.90;99.90
2907;DHT22;1463;51.070;16.998;2023-11-19T09:07:16;4.00;99.90
2907;DHT22;1463;51.070;16.998;2023-11-19T09:09:43;4.00;99.90
2907;DHT22;1463;51.070;16.998;2023-11-19T09:12:11;3.90;99.90
2907;DHT22;1463;51.070;16.998;2023-11-19T09:14:39;3.90;99.90
2907;DHT22;1463;51.070;16.998;2023-11-19T09:17:07;4.00;99.90
2907;DHT22;1463;51.070;16.998;2023-11-19T09:19:35;4.00;99.90
2907;DHT22;1463;51.070;16.998;2023-11-19T09:22:04;4.00;99.90
2907;DHT22;1463;51.070;16.998;2023-11-19T09:24:30;4.10;99.90
2907;DHT22;1463;51.070;16.998;2023-11-19T09:26:57;4.10;99.90
2907;DHT22;1463;51.070;16.998;2023-11-19T09:29:25;4.20;99.90
2907;DHT22;1463;51.070;16.998;2023-11-19T09:31:52;4.20;99.90
2907;DHT22;1463;51.070;16.998;2023-11-19T09:34:19;4.20;99.90
2907;DHT22;1463;51.070;16.998;2023-11-19T09:36:46;4.20;99.90
2907;DHT22;1463;51.070;16.998;2023-11-19T09:39:14;4.20;99.90
2907;DHT22;1463;51.070;16.998;2023-11-19T09:41:43;4.20;99.90
2907;DHT22;1463;51.070;16.998;2023-11-19T09:44:10;4.30;99.90
2907;DHT22;1463;51.070;16.998;2023-11-19T09:46:38;4.30;99.90
2907;DHT22;1463;51.070;16.998;2023-11-19T09:49:08;4.30;99.90
2907;DHT22;1463;51.070;16.998;2023-11-19T09:51:37;4.40;99.90
2907;DHT22;1463;51.070;16.998;2023-11-19T09:54:06;4.50;99.90
2907;DHT22;1463;51.070;16.998;2023-11-19T09:56:38;4.40;99.90
2907;DHT22;1463;51.070;16.998;2023-11-19T09:59:05;4.50;99.90
2907;DHT22;1463;51.070;16.998;2023-11-19T10:01:36;4.60;99.90
2907;DHT22;1463;51.070;16.998;2023-11-19T10:04:03;4.50;99.90
2907;DHT22;1463;51.070;16.998;2023-11-19T10:06:31;4.60;99.90
2907;DHT22;1463;51.070;16.998;2023-11-19T10:08:58;4.70;99.90
2907;DHT22;1463;51.070;16.998;2023-11-19T10:11:25;4.80;99.90
2907;DHT22;1463;51.070;16.998;2023-11-19T10:13:54;4.80;99.90
2907;DHT22;1463;51.070;16.998;2023-11-19T10:16:20;4.90;99.90
2907;DHT22;1463;51.070;16.998;2023-11-19T10:18:49;4.90;99.90
2907;DHT22;1463;51.070;16.998;2023-11-19T10:21:17;4.90;99.90
2907;DHT22;1463;51.070;16.998;2023-11-19T10:23:51;5.00;99.90
2907;DHT22;1463;51.070;16.998;2023-11-19T10:26:19;5.10;99.90
2907;DHT22;1463;51.070;16.998;2023-11-19T10:28:47;5.10;99.90
2907;DHT22;1463;51.070;16.998;2023-11-19T10:31:16;5.10;99.90
2907;DHT22;1463;51.070;16.998;2023-11-19T10:33:43;5.10;99.90
2907;DHT22;1463;51.070;16.998;2023-11-19T10:36:11;5.10;99.90
2907;DHT22;1463;51.070;16.998;2023-11-19T10:38:39;5.20;99.90
2907;DHT22;1463;51.070;16.998;2023-11-19T10:41:06;5.10;99.90
2907;DHT22;1463;51.070;16.998;2023-11-19T10:43:45;5.20;99.90
2907;DHT22;1463;51.070;16.998;2023-11-19T10:46:13;5.20;99.90
2907;DHT22;1463;51.070;16.998;2023-11-19T10:48:41;5.20;99.90
2907;DHT22;1463;51.070;16.998;2023-11-19T10:51:08;5.30;99.90
2907;DHT22;1463;51.070;16.998;2023-11-19T10:53:37;5.30;99.90
2907;DHT22;1463;51.070;16.998;2023-11-19T10:56:11;5.30;99.90
2907;DHT22;1463;51.070;16.998;2023-11-19T10:58:44;5.40;99.90
2907;DHT22;1463;51.070;16.998;2023-11-19T11:01:16;5.40;99.90
2907;DHT22;1463;51.070;16.998;2023-11-19T11:03:47;5.40;99.90
2907;DHT22;1463;51.070;16.998;2023-11-19T11:06:17;5.40;99.90
2907;DHT22;1463;51.070;16.998;2023-11-19T11:08:46;5.40;99.90
2907;DHT22;1463;51.070;16.998;2023-11-19T11:11:15;5.50;99.90
2907;DHT22;1463;51.070;16.998;2023-11-19T11:13:43;5.40;99.90
2907;DHT22;1463;51.070;16.998;2023-11-19T11:16:10;5.40;99.90
2907;DHT22;1463;51.070;16.998;2023-11-19T11:18:40;5.50;99.90
2907;DHT22;1463;51.070;16.998;2023-11-19T11:21:11;5.50;99.90
2907;DHT22;1463;51.070;16.998;2023-11-19T11:27:05;5.50;99.90
2907;DHT22;1463;51.070;16.998;2023-11-19T11:29:48;5.60;99.90
2907;DHT22;1463;51.070;16.998;2023-11-19T11:32:25;5.50;99.90
2907;DHT22;1463;51.070;16.998;2023-11-19T11:35:08;5.60;99.90
2907;DHT22;1463;51.070;16.998;2023-11-19T11:37:44;5.50;99.90
2907;DHT22;1463;51.070;16.998;2023-11-19T11:40:14;5.50;99.90
2907;DHT22;1463;51.070;16.998;2023-11-19T11:42:41;5.50;99.90
2907;DHT22;1463;51.070;16.998;2023-11-19T11:45:09;5.50;99.90
2907;DHT22;1463;51.070;16.998;2023-11-19T11:48:09;5.50;99.90
2907;DHT22;1463;51.070;16.998;2023-11-19T11:50:51;5.50;99.90
2907;DHT22;1463;51.070;16.998;2023-11-19T11:53:21;5.60;99.90
2907;DHT22;1463;51.070;16.998;2023-11-19T11:55:54;5.50;99.90
2907;DHT22;1463;51.070;16.998;2023-11-19T11:58:25;5.60;99.90
2907;DHT22;1463;51.070;16.998;2023-11-19T12:00:52;5.60;99.90
2907;DHT22;1463;51.070;16.998;2023-11-19T12:03:20;5.60;99.90
2907;DHT22;1463;51.070;16.998;2023-11-19T12:05:48;5.60;99.90
2907;DHT22;1463;51.070;16.998;2023-11-19T12:08:19;5.60;99.90
2907;DHT22;1463;51.070;16.998;2023-11-19T12:10:49;5.60;99.90
2907;DHT22;1463;51.070;16.998;2023-11-19T12:13:18;5.70;99.90
2907;DHT22;1463;51.070;16.998;2023-11-19T12:16:06;5.70;99.90
2907;DHT22;1463;51.070;16.998;2023-11-19T12:18:39;5.70;99.90
2907;DHT22;1463;51.070;16.998;2023-11-19T12:21:06;5.70;99.90
2907;DHT22;1463;51.070;16.998;2023-11-19T12:23:35;5.70;99.90
2907;DHT22;1463;51.070;16.998;2023-11-19T12:26:03;5.70;99.90
2907;DHT22;1463;51.070;16.998;2023-11-19T12:28:30;5.80;99.90
2907;DHT22;1463;51.070;16.998;2023-11-19T12:31:08;5.80;99.90
2907;DHT22;1463;51.070;16.998;2023-11-19T12:33:35;5.90;99.90
2907;DHT22;1463;51.070;16.998;2023-11-19T12:36:04;5.90;99.90
2907;DHT22;1463;51.070;16.998;2023-11-19T12:38:31;5.90;99.90
2907;DHT22;1463;51.070;16.998;2023-11-19T12:41:06;5.90;99.90
2907;DHT22;1463;51.070;16.998;2023-11-19T12:43:34;5.90;99.90
2907;DHT22;1463;51.070;16.998;2023-11-19T12:46:01;6.00;99.90
2907;DHT22;1463;51.070;16.998;2023-11-19T12:48:28;6.00;99.90
2907;DHT22;1463;51.070;16.998;2023-11-19T12:50:56;6.00;99.90
2907;DHT22;1463;51.070;16.998;2023-11-19T12:53:24;6.10;99.90
2907;DHT22;1463;51.070;16.998;2023-11-19T12:55:52;6.00;99.90
2907;DHT22;1463;51.070;16.998;2023-11-19T12:58:32;6.10;99.90
2907;DHT22;1463;51.070;16.998;2023-11-19T13:01:00;6.20;99.90
2907;DHT22;1463;51.070;16.998;2023-11-19T13:03:30;6.20;99.90
2907;DHT22;1463;51.070;16.998;2023-11-19T13:06:04;6.30;99.90
2907;DHT22;1463;51.070;16.998;2023-11-19T13:08:36;6.30;99.90
2907;DHT22;1463;51.070;16.998;2023-11-19T13:11:04;6.40;99.90
2907;DHT22;1463;51.070;16.998;2023-11-19T13:13:53;6.30;99.90
2907;DHT22;1463;51.070;16.998;2023-11-19T13:16:20;6.40;99.90
2907;DHT22;1463;51.070;16.998;2023-11-19T13:18:47;6.40;99.90
2907;DHT22;1463;51.070;16.998;2023-11-19T13:21:14;6.50;99.90
2907;DHT22;1463;51.070;16.998;2023-11-19T13:23:41;6.50;99.90
2907;DHT22;1463;51.070;16.998;2023-11-19T13:26:08;6.60;99.90
2907;DHT22;1463;51.070;16.998;2023-11-19T13:28:36;6.60;99.90
2907;DHT22;1463;51.070;16.998;2023-11-19T13:31:03;6.60;99.90
2907;DHT22;1463;51.070;16.998;2023-11-19T13:33:33;6.70;99.90
2907;DHT22;1463;51.070;16.998;2023-11-19T13:36:00;6.80;99.90
2907;DHT22;1463;51.070;16.998;2023-11-19T13:38:31;6.80;99.90
2907;DHT22;1463;51.070;16.998;2023-11-19T13:40:58;6.90;99.90
2907;DHT22;1463;51.070;16.998;2023-11-19T13:43:25;6.90;99.90
2907;DHT22;1463;51.070;16.998;2023-11-19T13:45:54;6.90;99.90
2907;DHT22;1463;51.070;16.998;2023-11-19T13:48:22;7.00;99.90
2907;DHT22;1463;51.070;16.998;2023-11-19T13:50:48;7.00;99.90
2907;DHT22;1463;51.070;16.998;2023-11-19T13:53:15;7.10;99.90
2907;DHT22;1463;51.070;16.998;2023-11-19T13:55:42;7.10;99.90
2907;DHT22;1463;51.070;16.998;2023-11-19T13:58:09;7.20;99.90
2907;DHT22;1463;51.070;16.998;2023-11-19T14:00:36;7.20;99.90
2907;DHT22;1463;51.070;16.998;2023-11-19T14:03:05;7.30;99.90
2907;DHT22;1463;51.070;16.998;2023-11-19T14:05:32;7.30;99.90
2907;DHT22;1463;51.070;16.998;2023-11-19T14:07:58;7.30;99.90
2907;DHT22;1463;51.070;16.998;2023-11-19T14:10:28;7.30;99.90
2907;DHT22;1463;51.070;16.998;2023-11-19T14:12:55;7.40;99.90
2907;DHT22;1463;51.070;16.998;2023-11-19T14:15:24;7.30;99.90
2907;DHT22;1463;51.070;16.998;2023-11-19T14:17:50;7.40;99.90
2907;DHT22;1463;51.070;16.998;2023-11-19T14:20:19;7.50;99.90
2907;DHT22;1463;51.070;16.998;2023-11-19T14:22:46;7.50;99.90
2907;DHT22;1463;51.070;16.998;2023-11-19T14:25:14;7.50;99.90
2907;DHT22;1463;51.070;16.998;2023-11-19T14:27:42;7.60;99.90
2907;DHT22;1463;51.070;16.998;2023-11-19T14:30:10;7.60;99.90
2907;DHT22;1463;51.070;16.998;2023-11-19T14:32:39;7.60;99.90
2907;DHT22;1463;51.070;16.998;2023-11-19T14:35:09;7.60;99.90
2907;DHT22;1463;51.070;16.998;2023-11-19T14:37:37;7.70;99.90
2907;DHT22;1463;51.070;16.998;2023-11-19T14:40:05;7.70;99.90
2907;DHT22;1463;51.070;16.998;2023-11-19T14:42:35;7.70;99.90
2907;DHT22;1463;51.070;16.998;2023-11-19T14:45:02;7.80;99.90
2907;DHT22;1463;51.070;16.998;2023-11-19T14:47:30;7.80;99.90
2907;DHT22;1463;51.070;16.998;2023-11-19T14:49:57;7.70;99.90
2907;DHT22;1463;51.070;16.998;2023-11-19T14:52:23;7.70;99.90
2907;DHT22;1463;51.070;16.998;2023-11-19T14:54:52;7.80;99.90
2907;DHT22;1463;51.070;16.998;2023-11-19T14:57:19;7.80;99.90
2907;DHT22;1463;51.070;16.998;2023-11-19T14:59:46;7.80;99.90
2907;DHT22;1463;51.070;16.998;2023-11-19T15:02:13;7.80;99.90
2907;DHT22;1463;51.070;16.998;2023-11-19T15:04:44;7.80;99.90
2907;DHT22;1463;51.070;16.998;2023-11-19T15:07:11;7.90;99.90
2907;DHT22;1463;51.070;16.998;2023-11-19T15:09:38;7.80;99.90
2907;DHT22;1463;51.070;16.998;2023-11-19T15:12:06;7.90;99.90
2907;DHT22;1463;51.070;16.998;2023-11-19T15:14:34;7.90;99.90
2907;DHT22;1463;51.070;16.998;2023-11-19T15:17:01;8.00;99.90
2907;DHT22;1463;51.070;16.998;2023-11-19T15:19:30;8.00;99.90
2907;DHT22;1463;51.070;16.998;2023-11-19T15:21:57;8.00;99.90
2907;DHT22;1463;51.070;16.998;2023-11-19T15:24:24;8.00;99.90
2907;DHT22;1463;51.070;16.998;2023-11-19T15:26:51;7.90;99.90
2907;DHT22;1463;51.070;16.998;2023-11-19T15:29:19;8.00;99.90
2907;DHT22;1463;51.070;16.998;2023-11-19T15:31:46;8.00;99.90
2907;DHT22;1463;51.070;16.998;2023-11-19T15:34:12;8.10;99.90
2907;DHT22;1463;51.070;16.998;2023-11-19T15:36:39;8.00;99.90
2907;DHT22;1463;51.070;16.998;2023-11-19T15:39:06;8.10;99.90
2907;DHT22;1463;51.070;16.998;2023-11-19T15:41:33;8.20;99.90
2907;DHT22;1463;51.070;16.998;2023-11-19T15:44:02;8.20;99.90
2907;DHT22;1463;51.070;16.998;2023-11-19T15:46:31;8.10;99.90
2907;DHT22;1463;51.070;16.998;2023-11-19T15:48:58;8.20;99.90
2907;DHT22;1463;51.070;16.998;2023-11-19T15:51:24;8.10;99.90
2907;DHT22;1463;51.070;16.998;2023-11-19T15:53:51;8.10;99.90
2907;DHT22;1463;51.070;16.998;2023-11-19T15:56:18;8.10;99.90
2907;DHT22;1463;51.070;16.998;2023-11-19T15:58:45;8.20;99.90
2907;DHT22;1463;51.070;16.998;2023-11-19T16:01:11;8.20;99.90
2907;DHT22;1463;51.070;16.998;2023-11-19T16:03:40;8.20;99.90
2907;DHT22;1463;51.070;16.998;2023-11-19T16:06:08;8.20;99.90
2907;DHT22;1463;51.070;16.998;2023-11-19T16:08:35;8.10;99.90
2907;DHT22;1463;51.070;16.998;2023-11-19T16:11:02;8.10;99.90